Time;durP1;ratioP1;P1;durP2;ratioP2;P2;SDS_P1;SDS_P2;PMS_P1;PMS_P2;Temp;Humidity;BMP_temperature;BMP_pressure;BME280_temperature;BME280_humidity;BME280_pressure;Samples;Min_cycle;Max_cycle;Signal;HPM_P1;HPM_P2
2022/08/02 00:01:22;;;;;;;1.63;0.73;;;18.20;60.40;;;;;;5002427;28;20097;-65
2022/08/02 00:03:48;;;;;;;1.80;0.80;;;18.20;60.30;;;;;;5007320;28;20076;-65
2022/08/02 00:06:13;;;;;;;2.75;0.95;;;18.20;60.30;;;;;;5005817;28;20022;-65
2022/08/02 00:08:39;;;;;;;2.13;0.75;;;18.30;60.30;;;;;;5004887;28;20028;-65
2022/08/02 00:11:05;;;;;;;2.70;0.90;;;18.30;60.20;;;;;;5005388;28;20579;-67
2022/08/02 00:13:30;;;;;;;3.50;0.90;;;18.30;60.10;;;;;;5002347;28;20106;-67
2022/08/02 00:15:56;;;;;;;1.85;0.80;;;18.30;60.10;;;;;;5006641;28;20072;-67
2022/08/02 00:18:21;;;;;;;2.65;0.88;;;18.30;60.10;;;;;;5001546;28;20022;-67
2022/08/02 00:20:47;;;;;;;1.63;0.80;;;18.30;60.10;;;;;;5007759;28;20503;-67
2022/08/02 00:23:12;;;;;;;1.80;0.90;;;18.30;60.00;;;;;;5006935;28;20544;-67
2022/08/02 00:25:38;;;;;;;2.88;0.80;;;18.30;59.90;;;;;;5007557;28;20034;-68
2022/08/02 00:28:03;;;;;;;2.83;0.75;;;18.30;59.90;;;;;;5002562;28;20389;-67
2022/08/02 00:30:29;;;;;;;1.60;0.88;;;18.30;59.90;;;;;;5007586;28;20022;-67
2022/08/02 00:32:55;;;;;;;1.50;0.80;;;18.30;59.90;;;;;;5009186;28;20026;-67
2022/08/02 00:35:20;;;;;;;1.95;0.90;;;18.30;59.80;;;;;;5000396;28;20085;-67
2022/08/02 00:37:46;;;;;;;2.38;0.80;;;18.30;59.80;;;;;;4997025;28;20023;-66
2022/08/02 00:40:11;;;;;;;1.98;0.88;;;18.30;59.80;;;;;;5010160;28;20034;-66
2022/08/02 00:42:38;;;;;;;3.85;1.10;;;18.20;59.90;;;;;;5004566;28;20595;-67
2022/08/02 00:45:04;;;;;;;2.33;1.02;;;18.20;60.00;;;;;;5007221;28;20029;-67
2022/08/02 00:47:30;;;;;;;3.38;1.52;;;18.20;60.10;;;;;;5004562;28;20026;-67
2022/08/02 00:49:55;;;;;;;5.38;3.13;;;18.20;60.10;;;;;;5005823;28;20420;-67
2022/08/02 00:52:22;;;;;;;4.35;1.98;;;18.10;60.10;;;;;;5008291;28;20034;-67
2022/08/02 00:54:48;;;;;;;3.80;1.70;;;18.10;60.20;;;;;;5008828;28;20029;-67
2022/08/02 00:57:14;;;;;;;3.67;1.30;;;18.10;60.30;;;;;;5006064;28;20037;-66
2022/08/02 00:59:40;;;;;;;4.03;1.27;;;18.10;60.40;;;;;;5000873;28;20096;-67
2022/08/02 01:02:06;;;;;;;2.10;0.88;;;18.00;60.70;;;;;;5002564;28;20048;-67
2022/08/02 01:04:32;;;;;;;3.55;1.20;;;18.00;60.90;;;;;;5005026;28;20041;-67
2022/08/02 01:07:03;;;;;;;2.53;0.95;;;17.90;61.00;;;;;;4998630;28;20578;-67
2022/08/02 01:09:29;;;;;;;5.20;1.30;;;17.90;61.00;;;;;;5002901;28;20030;-67
2022/08/02 01:11:55;;;;;;;4.25;1.45;;;17.80;61.20;;;;;;5008412;28;20034;-67
2022/08/02 01:14:23;;;;;;;1.92;0.98;;;17.80;61.40;;;;;;5008381;28;20021;-67
2022/08/02 01:17:09;;;;;;;2.40;1.00;;;17.80;61.50;;;;;;5000041;28;20038;-66
2022/08/02 01:20:11;;;;;;;2.58;1.20;;;17.80;61.50;;;;;;5004304;28;20037;-67
2022/08/02 01:22:42;;;;;;;4.03;1.67;;;17.70;61.50;;;;;;5002954;28;20032;-66
2022/08/02 01:25:37;;;;;;;5.70;2.10;;;17.60;61.70;;;;;;5005196;28;20120;-65
2022/08/02 01:28:21;;;;;;;4.47;1.67;;;17.60;61.50;;;;;;5002932;28;20535;-66
2022/08/02 01:30:51;;;;;;;1.38;0.90;;;17.60;61.50;;;;;;5004567;28;20151;-66
2022/08/02 01:33:19;;;;;;;1.60;0.90;;;17.60;61.30;;;;;;5004369;28;20080;-66
2022/08/02 01:35:52;;;;;;;2.15;1.00;;;17.70;61.20;;;;;;4995113;28;20027;-67
2022/08/02 01:38:38;;;;;;;3.33;1.38;;;17.60;61.10;;;;;;5004538;28;20423;-67
2022/08/02 01:41:06;;;;;;;3.95;1.25;;;17.60;61.00;;;;;;5009456;28;20060;-66
2022/08/02 01:43:34;;;;;;;2.58;1.00;;;17.60;61.10;;;;;;5009845;28;20040;-66
2022/08/02 01:46:00;;;;;;;2.25;1.35;;;17.60;61.20;;;;;;5010016;28;20033;-66
2022/08/02 01:48:28;;;;;;;3.72;1.20;;;17.50;61.30;;;;;;5002461;28;20492;-66
2022/08/02 01:50:54;;;;;;;2.25;1.25;;;17.50;61.60;;;;;;5008274;28;20384;-67
2022/08/02 01:53:21;;;;;;;2.53;1.10;;;17.50;61.20;;;;;;5007810;28;20022;-66
2022/08/02 01:55:50;;;;;;;3.97;1.48;;;17.50;61.50;;;;;;5005790;28;20030;-66
2022/08/02 01:58:18;;;;;;;3.97;1.67;;;17.50;62.20;;;;;;5005475;28;20014;-67
2022/08/02 02:00:44;;;;;;;1.73;1.17;;;17.50;61.60;;;;;;5000805;28;20470;-67
2022/08/02 02:03:14;;;;;;;3.78;1.30;;;17.50;61.60;;;;;;5009003;28;20018;-67
2022/08/02 02:05:40;;;;;;;1.70;1.10;;;17.50;61.70;;;;;;5001036;28;20030;-67
2022/08/02 02:08:08;;;;;;;5.18;1.45;;;17.50;61.80;;;;;;5010085;28;20030;-66
2022/08/02 02:10:37;;;;;;;4.53;1.58;;;17.50;61.80;;;;;;5005259;28;20173;-66
2022/08/02 02:13:08;;;;;;;5.40;1.50;;;17.40;62.00;;;;;;5004699;28;20030;-66
2022/08/02 02:15:39;;;;;;;2.33;1.20;;;17.40;62.10;;;;;;5005239;28;20053;-66
2022/08/02 02:18:06;;;;;;;4.28;1.60;;;17.40;62.10;;;;;;5004104;28;20041;-67
2022/08/02 02:20:32;;;;;;;2.53;1.30;;;17.30;62.40;;;;;;4999727;28;20106;-66
2022/08/02 02:22:58;;;;;;;4.35;1.60;;;17.40;62.30;;;;;;5008395;28;20039;-67
2022/08/02 02:25:24;;;;;;;2.47;1.30;;;17.30;62.50;;;;;;5008262;28;20030;-66
2022/08/02 02:27:57;;;;;;;3.67;1.40;;;17.30;62.50;;;;;;5009681;28;20022;-66
2022/08/02 02:30:26;;;;;;;4.05;1.30;;;17.30;62.70;;;;;;5007576;28;20040;-67
2022/08/02 02:32:54;;;;;;;4.85;1.80;;;17.30;62.70;;;;;;5010112;28;20030;-67
2022/08/02 02:35:21;;;;;;;2.33;1.20;;;17.30;62.80;;;;;;5005387;28;20026;-67
2022/08/02 02:37:48;;;;;;;2.90;1.33;;;17.30;62.70;;;;;;5010707;28;20550;-66
2022/08/02 02:40:15;;;;;;;2.92;1.40;;;17.30;62.70;;;;;;5001489;28;20105;-66
2022/08/02 02:42:42;;;;;;;2.88;1.40;;;17.30;62.50;;;;;;5006390;28;20030;-66
2022/08/02 02:45:09;;;;;;;3.95;1.30;;;17.40;62.70;;;;;;5002295;28;20042;-66
2022/08/02 02:47:36;;;;;;;6.40;1.50;;;17.40;62.60;;;;;;5011379;28;20037;-66
2022/08/02 02:50:02;;;;;;;4.55;1.55;;;17.30;62.80;;;;;;5009282;28;20085;-66
2022/08/02 02:52:28;;;;;;;3.38;1.30;;;17.30;62.90;;;;;;5003055;28;20527;-65
2022/08/02 02:54:55;;;;;;;1.98;1.30;;;17.30;62.80;;;;;;5002561;28;20053;-65
2022/08/02 02:57:21;;;;;;;2.85;1.40;;;17.30;62.90;;;;;;5008826;28;20026;-66
2022/08/02 02:59:47;;;;;;;2.95;1.33;;;17.30;62.80;;;;;;5001931;28;20532;-66
2022/08/02 03:02:13;;;;;;;2.85;1.40;;;17.30;62.90;;;;;;5004272;28;20057;-66
2022/08/02 03:04:41;;;;;;;4.47;1.70;;;17.30;63.10;;;;;;5006264;28;20026;-66
2022/08/02 03:07:08;;;;;;;2.70;1.33;;;17.20;63.30;;;;;;5010217;28;20400;-67
2022/08/02 03:09:34;;;;;;;2.67;1.40;;;17.20;63.40;;;;;;4999808;28;21445;-67
2022/08/02 03:12:00;;;;;;;3.28;1.23;;;17.20;63.40;;;;;;5007454;28;20030;-67
2022/08/02 03:14:25;;;;;;;5.55;1.75;;;17.20;63.60;;;;;;5009254;28;20050;-67
2022/08/02 03:16:52;;;;;;;2.72;1.30;;;17.20;63.60;;;;;;5011245;28;20656;-66
2022/08/02 03:19:20;;;;;;;2.92;1.60;;;17.10;63.80;;;;;;5009309;28;20034;-66
2022/08/02 03:21:47;;;;;;;2.70;1.17;;;17.10;63.90;;;;;;5010546;28;20022;-66
2022/08/02 03:24:13;;;;;;;3.08;1.48;;;17.10;63.90;;;;;;5006800;28;20026;-66
2022/08/02 03:26:39;;;;;;;2.33;1.40;;;17.10;63.90;;;;;;5005837;28;20432;-66
2022/08/02 03:29:05;;;;;;;3.15;1.42;;;17.10;64.00;;;;;;5007681;28;20073;-66
2022/08/02 03:31:31;;;;;;;1.95;1.30;;;17.10;64.10;;;;;;5006962;28;20037;-66
2022/08/02 03:33:58;;;;;;;1.90;1.40;;;17.10;64.30;;;;;;5001861;28;20648;-66
2022/08/02 03:36:26;;;;;;;2.95;1.40;;;17.10;64.20;;;;;;4999098;28;20026;-65
2022/08/02 03:38:53;;;;;;;2.83;1.20;;;17.10;64.30;;;;;;5004543;28;20409;-66
2022/08/02 03:41:20;;;;;;;2.65;1.45;;;17.00;64.20;;;;;;5011227;28;20022;-66
2022/08/02 03:43:47;;;;;;;3.70;1.60;;;17.00;64.30;;;;;;5010326;28;20109;-66
2022/08/02 03:46:14;;;;;;;2.85;1.42;;;17.00;64.30;;;;;;5002199;28;20021;-66
2022/08/02 03:48:41;;;;;;;4.75;1.70;;;17.00;64.40;;;;;;5007101;28;20113;-66
2022/08/02 03:51:07;;;;;;;4.13;1.75;;;17.00;64.50;;;;;;5004265;28;20053;-66
2022/08/02 03:53:33;;;;;;;4.38;2.03;;;17.00;64.40;;;;;;5008720;28;20041;-66
2022/08/02 03:55:59;;;;;;;4.05;1.92;;;17.00;64.40;;;;;;4999233;28;20029;-65
2022/08/02 03:58:25;;;;;;;4.72;2.00;;;17.00;64.60;;;;;;5000809;28;20034;-66
2022/08/02 04:00:52;;;;;;;3.60;1.60;;;17.00;64.70;;;;;;5006259;28;20523;-66
2022/08/02 04:03:17;;;;;;;4.22;2.35;;;17.00;64.70;;;;;;5006450;28;20075;-66
2022/08/02 04:05:43;;;;;;;4.10;2.20;;;17.10;64.80;;;;;;4996974;28;20027;-66
2022/08/02 04:08:09;;;;;;;2.35;1.70;;;17.10;64.80;;;;;;5003921;28;20026;-66
2022/08/02 04:13:25;;;;;;;4.50;2.20;;;17.20;64.70;;;;;;5009480;28;20069;-67
2022/08/02 04:15:56;;;;;;;3.53;1.95;;;17.10;64.60;;;;;;5005336;28;20026;-67
2022/08/02 04:18:27;;;;;;;5.13;1.95;;;17.10;64.90;;;;;;5001667;28;20025;-67
2022/08/02 04:20:55;;;;;;;3.80;2.25;;;17.10;65.00;;;;;;5009389;28;20026;-67
2022/08/02 04:23:24;;;;;;;6.60;2.45;;;17.10;65.20;;;;;;5007904;28;20724;-67
2022/08/02 04:25:51;;;;;;;4.78;2.10;;;17.10;65.40;;;;;;5006397;28;20112;-67
2022/08/02 04:28:17;;;;;;;2.85;2.00;;;17.20;65.30;;;;;;5008307;28;20026;-66
2022/08/02 04:30:43;;;;;;;3.63;2.00;;;17.20;65.30;;;;;;5008179;28;20109;-66
2022/08/02 04:33:10;;;;;;;3.53;2.20;;;17.20;65.30;;;;;;5009334;28;20084;-67
2022/08/02 04:35:35;;;;;;;4.13;2.30;;;17.10;65.50;;;;;;5005471;28;20022;-67
2022/08/02 04:38:01;;;;;;;4.10;2.20;;;17.20;65.60;;;;;;5005913;28;20032;-67
2022/08/02 04:40:27;;;;;;;2.97;2.00;;;17.20;65.60;;;;;;5004125;28;20105;-66
2022/08/02 04:42:52;;;;;;;4.30;2.38;;;17.20;65.60;;;;;;5004279;28;20068;-67
2022/08/02 04:45:20;;;;;;;4.15;2.05;;;17.20;65.70;;;;;;5006858;28;20552;-66
2022/08/02 04:47:45;;;;;;;3.67;2.25;;;17.20;65.70;;;;;;5007756;28;20019;-66
2022/08/02 04:50:11;;;;;;;4.50;2.60;;;17.20;65.70;;;;;;5007929;28;20041;-66
2022/08/02 04:52:36;;;;;;;4.90;2.50;;;17.10;66.00;;;;;;5009430;28;20030;-66
2022/08/02 04:55:02;;;;;;;4.47;2.78;;;17.10;66.50;;;;;;5007183;28;20030;-67
2022/08/02 05:00:13;;;;;;;4.47;2.10;;;17.00;66.90;;;;;;5006760;28;20077;-66
2022/08/02 05:02:38;;;;;;;5.85;2.97;;;17.10;66.80;;;;;;5013811;28;20057;-65
2022/08/02 05:05:04;;;;;;;5.28;2.72;;;17.10;66.90;;;;;;5004306;28;20060;-66
2022/08/02 05:07:30;;;;;;;5.75;3.15;;;17.20;66.80;;;;;;5004643;28;20033;-66
2022/08/02 05:09:55;;;;;;;4.25;2.60;;;17.30;66.60;;;;;;5005610;28;20034;-66
2022/08/02 05:12:21;;;;;;;3.70;2.42;;;17.30;66.30;;;;;;5007989;28;20072;-66
2022/08/02 05:14:47;;;;;;;4.15;2.72;;;17.40;66.10;;;;;;5008701;28;20037;-66
2022/08/02 05:17:13;;;;;;;5.78;2.58;;;17.40;66.20;;;;;;5009914;28;20072;-65
2022/08/02 05:19:39;;;;;;;4.93;2.55;;;17.50;66.10;;;;;;5008029;28;20030;-65
2022/08/02 05:22:04;;;;;;;4.85;2.60;;;17.50;66.20;;;;;;5007794;28;20493;-65
2022/08/02 05:24:30;;;;;;;3.97;2.40;;;17.50;66.30;;;;;;5003170;28;20030;-65
2022/08/02 05:26:55;;;;;;;5.55;2.55;;;18.00;65.80;;;;;;5011549;28;20029;-65
2022/08/02 05:29:22;;;;;;;4.20;2.90;;;18.70;64.30;;;;;;5005178;28;20026;-65
2022/08/02 05:31:47;;;;;;;4.30;2.25;;;19.20;62.70;;;;;;5006927;28;20026;-65
2022/08/02 05:34:13;;;;;;;3.70;2.05;;;19.60;61.50;;;;;;5007853;28;20038;-65
2022/08/02 05:36:38;;;;;;;5.47;2.20;;;20.10;60.50;;;;;;5009547;28;20033;-65
2022/08/02 05:39:04;;;;;;;2.97;1.63;;;20.40;59.40;;;;;;5006743;28;20030;-65
2022/08/02 05:41:29;;;;;;;4.43;2.65;;;21.00;58.40;;;;;;5006294;28;20150;-65
2022/08/02 05:43:55;;;;;;;3.05;2.15;;;21.20;57.30;;;;;;5007225;28;20091;-66
2022/08/02 05:46:20;;;;;;;2.85;1.98;;;21.80;56.30;;;;;;5008239;28;20077;-65
2022/08/02 05:48:46;;;;;;;4.97;2.28;;;22.30;55.10;;;;;;5003254;28;20054;-65
2022/08/02 05:51:20;;;;;;;5.45;2.33;;;22.80;54.00;;;;;;5006485;28;20396;-65
2022/08/02 05:53:56;;;;;;;4.80;2.50;;;23.10;53.10;;;;;;5004920;28;20101;-66
2022/08/02 05:56:21;;;;;;;4.45;2.08;;;23.40;52.20;;;;;;5006231;28;20022;-66
2022/08/02 05:59:08;;;;;;;3.58;2.00;;;23.80;51.20;;;;;;5005907;28;20097;-66
2022/08/02 06:01:38;;;;;;;4.78;2.30;;;23.90;50.40;;;;;;5007587;28;20539;-65
2022/08/02 06:04:10;;;;;;;5.03;2.17;;;23.90;50.60;;;;;;5008474;28;20022;-65
2022/08/02 06:06:36;;;;;;;4.30;2.03;;;23.90;50.30;;;;;;5010098;28;20092;-65
2022/08/02 06:09:08;;;;;;;5.00;1.95;;;23.80;50.60;;;;;;5008774;28;20022;-65
2022/08/02 06:11:37;;;;;;;5.65;2.28;;;23.90;50.90;;;;;;5009684;28;20092;-65
2022/08/02 06:14:05;;;;;;;5.18;2.30;;;24.10;50.30;;;;;;5009554;28;20540;-65
2022/08/02 06:16:30;;;;;;;2.80;2.00;;;23.80;50.60;;;;;;5009978;28;20029;-65
2022/08/02 06:18:58;;;;;;;6.05;2.17;;;23.50;51.20;;;;;;5009612;28;20022;-66
2022/08/02 06:21:25;;;;;;;4.85;2.72;;;23.90;51.00;;;;;;5009890;28;20480;-67
2022/08/02 06:23:51;;;;;;;5.28;2.00;;;24.30;50.20;;;;;;5012901;28;20072;-66
2022/08/02 06:26:17;;;;;;;4.82;2.40;;;24.90;49.40;;;;;;5010949;28;20045;-66
2022/08/02 06:28:44;;;;;;;5.63;2.50;;;25.10;48.70;;;;;;5013201;28;20029;-66
2022/08/02 06:31:13;;;;;;;4.70;2.28;;;25.50;48.10;;;;;;5012871;28;20543;-66
2022/08/02 06:33:38;;;;;;;4.57;2.20;;;25.90;47.60;;;;;;5012937;28;20075;-66
2022/08/02 06:36:15;;;;;;;6.05;2.50;;;25.70;47.50;;;;;;5012808;28;20021;-66
2022/08/02 06:39:09;;;;;;;4.47;1.83;;;25.70;47.70;;;;;;5012728;28;20033;-66
2022/08/02 06:41:41;;;;;;;4.63;2.50;;;26.10;47.70;;;;;;5012587;28;20577;-66
2022/08/02 06:44:07;;;;;;;3.17;2.17;;;26.00;47.70;;;;;;5012955;28;20389;-66
2022/08/02 06:46:33;;;;;;;5.05;2.20;;;25.50;48.40;;;;;;5012656;28;20087;-66
2022/08/02 06:49:00;;;;;;;5.13;2.65;;;25.40;49.20;;;;;;5012689;28;20467;-66
2022/08/02 06:51:25;;;;;;;3.35;1.80;;;25.10;49.50;;;;;;5012571;28;20045;-66
2022/08/02 06:53:51;;;;;;;5.78;2.70;;;25.10;50.20;;;;;;5013042;28;20056;-66
2022/08/02 06:56:18;;;;;;;5.35;2.28;;;24.90;50.50;;;;;;5012692;28;20497;-66
2022/08/02 06:58:43;;;;;;;3.88;2.20;;;25.10;50.90;;;;;;5012850;28;20022;-66
2022/08/02 07:01:09;;;;;;;5.60;3.15;;;25.10;51.20;;;;;;5011982;28;20076;-66
2022/08/02 07:03:36;;;;;;;4.82;2.40;;;24.90;51.30;;;;;;5012272;28;20037;-66
2022/08/02 07:06:03;;;;;;;5.90;2.70;;;24.70;51.90;;;;;;5012481;28;20052;-66
2022/08/02 07:08:31;;;;;;;4.20;2.50;;;24.70;52.10;;;;;;5012817;28;20029;-66
2022/08/02 07:11:00;;;;;;;4.45;2.55;;;24.50;52.60;;;;;;5012364;28;20117;-66
2022/08/02 07:13:27;;;;;;;9.40;2.60;;;24.60;52.80;;;;;;5012288;28;20109;-66
2022/08/02 07:15:53;;;;;;;4.75;2.35;;;25.10;52.20;;;;;;5012536;28;20026;-65
2022/08/02 07:18:19;;;;;;;3.53;1.77;;;25.30;51.90;;;;;;5012083;28;20563;-66
2022/08/02 07:20:45;;;;;;;4.10;2.35;;;25.90;51.10;;;;;;5012339;28;20026;-65
2022/08/02 07:23:11;;;;;;;4.90;2.40;;;25.90;50.80;;;;;;5012117;28;20021;-66
2022/08/02 07:25:36;;;;;;;3.97;1.77;;;26.00;50.90;;;;;;5012466;28;20073;-66
2022/08/02 07:28:02;;;;;;;4.30;2.70;;;26.20;51.00;;;;;;5013021;28;20080;-66
2022/08/02 07:30:29;;;;;;;4.68;2.28;;;25.70;50.90;;;;;;5012674;28;20048;-66
2022/08/02 07:32:54;;;;;;;5.15;2.42;;;25.40;51.90;;;;;;5012267;28;20010;-66
2022/08/02 07:35:20;;;;;;;3.42;1.95;;;25.30;52.40;;;;;;5006039;28;20030;-66
2022/08/02 07:37:47;;;;;;;8.45;2.47;;;25.40;52.50;;;;;;5004963;28;20030;-66
2022/08/02 07:40:14;;;;;;;4.47;2.70;;;25.50;52.50;;;;;;5002469;28;20477;-66
2022/08/02 07:42:40;;;;;;;5.60;3.08;;;25.20;52.50;;;;;;5004578;28;20033;-66
2022/08/02 07:45:06;;;;;;;3.60;2.30;;;25.10;52.60;;;;;;5001955;28;20026;-66
2022/08/02 07:47:42;;;;;;;2.80;2.15;;;24.80;53.00;;;;;;5000234;28;20321;-66
2022/08/02 07:50:10;;;;;;;6.20;3.20;;;24.80;53.60;;;;;;4999258;28;20044;-66
2022/08/02 07:52:36;;;;;;;4.80;2.70;;;24.80;53.50;;;;;;4999973;28;20022;-66
2022/08/02 07:55:02;;;;;;;4.82;2.53;;;24.70;53.80;;;;;;5001577;28;20014;-66
2022/08/02 07:57:30;;;;;;;4.82;2.83;;;24.80;54.00;;;;;;5002863;28;20062;-65
2022/08/02 07:59:56;;;;;;;6.43;2.97;;;24.70;54.10;;;;;;4998957;28;21510;-65
2022/08/02 08:02:23;;;;;;;3.05;2.08;;;24.70;54.30;;;;;;5002569;28;20101;-66
2022/08/02 08:04:50;;;;;;;4.43;2.35;;;24.80;54.40;;;;;;5003007;28;20077;-66
2022/08/02 08:07:15;;;;;;;5.82;2.90;;;25.00;54.50;;;;;;5007288;28;20431;-66
2022/08/02 08:09:42;;;;;;;4.65;2.63;;;25.00;54.40;;;;;;5002198;28;20080;-66
2022/08/02 08:12:08;;;;;;;5.25;2.90;;;25.00;54.70;;;;;;5001956;28;20129;-66
2022/08/02 08:14:34;;;;;;;4.78;2.67;;;25.00;54.70;;;;;;5000127;28;20022;-66
2022/08/02 08:17:00;;;;;;;3.65;2.30;;;25.10;54.80;;;;;;5005189;28;20026;-66
2022/08/02 08:19:25;;;;;;;3.58;2.08;;;25.30;54.80;;;;;;5002775;28;20026;-66
2022/08/02 08:21:51;;;;;;;5.07;4.13;;;25.50;54.60;;;;;;5000469;28;20072;-65
2022/08/02 08:24:17;;;;;;;3.85;2.95;;;25.50;53.60;;;;;;5001914;28;20036;-65
2022/08/02 08:26:42;;;;;;;4.63;3.60;;;25.40;53.90;;;;;;5001404;28;20027;-66
2022/08/02 08:29:08;;;;;;;4.45;3.15;;;25.50;54.00;;;;;;4997483;28;20069;-65
2022/08/02 08:31:34;;;;;;;2.88;2.38;;;25.50;54.00;;;;;;5000477;28;20022;-65
2022/08/02 08:34:00;;;;;;;4.32;3.15;;;25.60;54.00;;;;;;4999504;28;20029;-66
2022/08/02 08:36:26;;;;;;;6.90;3.50;;;25.70;53.50;;;;;;4999514;28;20022;-65
2022/08/02 08:38:51;;;;;;;3.78;3.30;;;25.80;53.30;;;;;;4991336;28;20026;-66
2022/08/02 08:41:17;;;;;;;4.90;2.80;;;25.90;53.30;;;;;;4990384;28;20120;-66
2022/08/02 08:43:44;;;;;;;4.35;3.85;;;26.00;53.30;;;;;;4991177;28;20019;-66
2022/08/02 08:46:16;;;;;;;5.95;4.18;;;26.20;53.00;;;;;;4991486;28;20041;-65
2022/08/02 08:48:45;;;;;;;3.55;3.03;;;26.20;52.60;;;;;;4990874;28;20034;-65
2022/08/02 08:51:15;;;;;;;3.83;3.05;;;26.10;52.80;;;;;;4990908;28;20157;-65
2022/08/02 08:53:47;;;;;;;3.92;3.00;;;26.20;53.00;;;;;;4991015;28;20014;-65
2022/08/02 08:56:15;;;;;;;5.10;2.70;;;26.20;52.90;;;;;;4993800;28;20087;-66
2022/08/02 08:58:41;;;;;;;5.13;3.75;;;26.30;53.00;;;;;;5000016;28;20526;-67
2022/08/02 09:01:08;;;;;;;3.70;2.97;;;26.20;52.20;;;;;;5003655;28;20030;-66
2022/08/02 09:03:34;;;;;;;4.00;3.20;;;26.40;52.30;;;;;;5000017;28;20022;-66
2022/08/02 09:05:59;;;;;;;4.75;3.85;;;26.40;52.20;;;;;;4999661;28;20045;-66
2022/08/02 09:08:25;;;;;;;4.60;3.80;;;26.50;51.70;;;;;;5000335;28;20022;-65
2022/08/02 09:10:51;;;;;;;4.45;2.97;;;26.50;51.60;;;;;;5001316;28;20026;-66
2022/08/02 09:13:21;;;;;;;4.82;3.30;;;26.50;51.70;;;;;;4998113;28;20388;-66
2022/08/02 09:15:56;;;;;;;3.25;2.50;;;26.50;51.40;;;;;;5007015;28;20014;-66
2022/08/02 09:18:32;;;;;;;3.22;2.40;;;26.50;51.10;;;;;;4999304;28;20026;-66
2022/08/02 09:21:03;;;;;;;3.20;2.20;;;26.40;51.00;;;;;;4998888;28;20389;-66
2022/08/02 09:23:45;;;;;;;3.53;2.53;;;26.40;50.60;;;;;;4998283;28;20026;-66
2022/08/02 09:26:16;;;;;;;3.42;2.20;;;26.50;50.20;;;;;;4998318;28;20052;-66
2022/08/02 09:28:49;;;;;;;1.98;1.60;;;26.50;50.00;;;;;;5000410;28;20381;-66
2022/08/02 09:31:15;;;;;;;2.17;1.80;;;26.50;49.80;;;;;;4998421;28;20157;-66
2022/08/02 09:33:43;;;;;;;3.85;1.60;;;26.50;49.60;;;;;;5001057;28;20110;-66
2022/08/02 09:36:11;;;;;;;2.67;1.60;;;26.60;49.50;;;;;;4998613;28;20018;-66
2022/08/02 09:38:37;;;;;;;1.67;1.40;;;26.60;48.80;;;;;;4996956;28;20026;-66
2022/08/02 09:41:04;;;;;;;2.35;1.80;;;26.60;48.70;;;;;;4990304;28;20030;-66
2022/08/02 09:43:38;;;;;;;2.17;1.50;;;26.60;47.90;;;;;;4990536;28;20694;-66
2022/08/02 09:46:20;;;;;;;1.95;1.30;;;26.60;48.30;;;;;;4990332;28;20106;-66
2022/08/02 09:48:46;;;;;;;1.60;1.50;;;26.70;48.80;;;;;;4999378;28;20033;-66
2022/08/02 09:51:12;;;;;;;1.80;1.55;;;26.70;48.90;;;;;;5004672;28;20449;-66
2022/08/02 09:53:38;;;;;;;3.92;1.70;;;26.60;48.70;;;;;;5005288;28;20032;-66
2022/08/02 09:56:04;;;;;;;4.30;1.80;;;26.60;49.10;;;;;;5007921;28;20055;-66
2022/08/02 09:58:29;;;;;;;2.00;1.45;;;26.70;49.30;;;;;;5006792;28;20499;-67
2022/08/02 10:00:59;;;;;;;2.42;1.90;;;26.80;49.30;;;;;;5007385;28;20021;-67
2022/08/02 10:03:25;;;;;;;1.75;1.65;;;26.90;48.90;;;;;;5009747;28;21163;-67
2022/08/02 10:05:53;;;;;;;4.15;1.52;;;26.80;48.70;;;;;;5011913;28;20065;-67
2022/08/02 10:08:20;;;;;;;2.60;1.50;;;26.90;49.00;;;;;;5012044;28;20044;-66
2022/08/02 10:10:46;;;;;;;2.08;1.52;;;26.90;49.10;;;;;;5010632;28;20064;-67
2022/08/02 10:13:12;;;;;;;1.73;1.40;;;26.90;49.30;;;;;;5011570;28;20045;-67
2022/08/02 10:15:38;;;;;;;2.10;1.73;;;27.10;49.30;;;;;;5007459;28;20476;-66
2022/08/02 10:18:07;;;;;;;1.88;1.60;;;27.30;49.20;;;;;;5010100;28;20033;-67
2022/08/02 10:20:42;;;;;;;1.92;1.40;;;27.30;49.00;;;;;;5006923;28;20038;-67
2022/08/02 10:23:11;;;;;;;2.35;1.48;;;27.40;49.10;;;;;;5024965;28;20026;-67
2022/08/02 10:25:38;;;;;;;3.85;2.20;;;27.50;48.90;;;;;;5007458;28;20493;-66
2022/08/02 10:28:06;;;;;;;2.85;1.83;;;27.60;47.80;;;;;;5005951;28;20473;-66
2022/08/02 10:30:35;;;;;;;2.13;1.60;;;27.40;47.70;;;;;;5006438;28;20124;-66
2022/08/02 10:33:02;;;;;;;2.00;1.35;;;27.40;48.10;;;;;;5008064;28;20018;-66
2022/08/02 10:35:31;;;;;;;1.48;1.35;;;27.60;48.20;;;;;;5009038;28;20251;-66
2022/08/02 10:38:02;;;;;;;3.58;1.90;;;27.70;48.10;;;;;;5010881;28;20076;-67
2022/08/02 10:40:43;;;;;;;2.57;1.50;;;27.80;47.30;;;;;;5010014;28;20029;-67
2022/08/02 10:43:08;;;;;;;1.50;1.37;;;27.70;47.60;;;;;;5006400;28;20026;-67
2022/08/02 10:45:34;;;;;;;2.58;1.50;;;27.80;47.90;;;;;;5010064;28;20037;-67
2022/08/02 10:48:16;;;;;;;1.67;1.38;;;27.90;47.60;;;;;;5010339;28;20041;-66
2022/08/02 10:50:44;;;;;;;1.10;1.00;;;27.90;47.20;;;;;;5000567;28;20850;-66
2022/08/02 10:53:29;;;;;;;4.43;1.25;;;28.00;47.50;;;;;;5009096;28;20026;-66
2022/08/02 10:55:58;;;;;;;2.30;1.42;;;28.00;47.10;;;;;;5005831;28;20033;-66
2022/08/02 10:58:26;;;;;;;1.67;1.20;;;28.00;46.60;;;;;;5008027;28;20056;-67
2022/08/02 11:00:53;;;;;;;2.15;1.33;;;28.10;46.60;;;;;;5008794;28;20061;-66
2022/08/02 11:03:28;;;;;;;3.05;1.40;;;28.20;46.00;;;;;;5009584;28;20415;-66
2022/08/02 11:06:02;;;;;;;2.03;1.27;;;28.30;44.90;;;;;;5008212;28;20033;-66
2022/08/02 11:08:28;;;;;;;1.30;1.20;;;28.30;44.60;;;;;;5004019;28;20688;-66
2022/08/02 11:11:15;;;;;;;1.58;1.20;;;28.40;44.60;;;;;;5007431;28;20033;-66
2022/08/02 11:14:07;;;;;;;1.40;1.30;;;28.30;44.80;;;;;;5004705;28;20042;-66
2022/08/02 11:16:54;;;;;;;1.95;1.10;;;28.40;44.10;;;;;;5004592;28;20038;-66
2022/08/02 11:19:24;;;;;;;1.20;1.00;;;28.50;44.00;;;;;;5005283;28;20018;-66
2022/08/02 11:22:05;;;;;;;1.33;1.00;;;28.70;44.10;;;;;;5003811;28;20030;-66
2022/08/02 11:24:35;;;;;;;1.23;1.00;;;28.80;43.70;;;;;;5006878;28;20158;-66
2022/08/02 11:27:02;;;;;;;0.90;0.90;;;28.80;43.60;;;;;;5005745;28;20018;-66
2022/08/02 11:29:44;;;;;;;1.52;1.20;;;28.80;43.60;;;;;;5002608;28;20033;-66
2022/08/02 11:32:21;;;;;;;0.93;0.93;;;28.90;43.60;;;;;;5006876;28;20030;-66
2022/08/02 11:34:50;;;;;;;1.00;1.00;;;29.00;43.60;;;;;;5005777;28;20029;-66
2022/08/02 11:37:38;;;;;;;1.13;1.02;;;29.00;43.20;;;;;;5006019;28;20045;-66
2022/08/02 11:40:05;;;;;;;1.15;1.05;;;29.00;43.20;;;;;;5005427;28;20054;-66
2022/08/02 11:42:32;;;;;;;1.77;1.08;;;29.10;43.10;;;;;;5006667;28;20492;-66
2022/08/02 11:44:58;;;;;;;1.33;0.93;;;29.10;42.90;;;;;;5007258;28;20045;-66
2022/08/02 11:47:23;;;;;;;1.27;0.90;;;29.20;42.60;;;;;;5007011;28;20026;-66
2022/08/02 11:49:49;;;;;;;1.27;1.08;;;29.40;42.70;;;;;;5006567;28;20028;-66
2022/08/02 11:52:14;;;;;;;1.00;0.90;;;29.50;42.30;;;;;;5008134;28;20030;-66
2022/08/02 11:54:42;;;;;;;1.20;1.10;;;29.60;42.00;;;;;;5007257;28;20052;-66
2022/08/02 11:57:11;;;;;;;1.20;1.10;;;29.70;41.20;;;;;;5006082;28;20459;-66
2022/08/02 11:59:38;;;;;;;0.93;0.93;;;29.70;41.40;;;;;;5008300;28;20022;-66
2022/08/02 12:02:05;;;;;;;0.80;0.80;;;29.60;40.70;;;;;;5006098;28;20029;-66
2022/08/02 12:04:31;;;;;;;2.90;1.20;;;29.60;40.70;;;;;;5008217;28;20093;-66
2022/08/02 12:06:58;;;;;;;1.38;1.10;;;29.50;40.50;;;;;;5006337;28;20499;-66
2022/08/02 12:09:26;;;;;;;1.27;0.93;;;29.50;40.30;;;;;;5007578;28;20014;-66
2022/08/02 12:11:51;;;;;;;1.02;0.95;;;29.60;40.40;;;;;;5005459;28;20033;-66
2022/08/02 12:14:17;;;;;;;1.15;1.05;;;29.60;40.30;;;;;;5008098;28;20014;-66
2022/08/02 12:19:28;;;;;;;1.67;1.00;;;29.80;40.20;;;;;;5007202;28;20053;-66
2022/08/02 12:22:16;;;;;;;1.20;1.10;;;29.90;39.80;;;;;;5004786;28;20021;-68
2022/08/02 12:24:45;;;;;;;1.10;1.00;;;30.10;39.60;;;;;;5006724;28;20034;-66
2022/08/02 12:27:32;;;;;;;1.65;1.23;;;30.20;39.40;;;;;;5006715;28;20021;-66
2022/08/02 12:30:06;;;;;;;2.95;1.20;;;30.40;38.70;;;;;;5007338;28;20030;-66
2022/08/02 12:32:32;;;;;;;2.88;1.00;;;30.50;37.70;;;;;;5007596;28;20029;-66
2022/08/02 12:35:01;;;;;;;1.35;0.85;;;30.50;38.10;;;;;;5007027;28;20026;-66
2022/08/02 12:37:26;;;;;;;0.90;0.90;;;30.60;38.10;;;;;;5006903;28;20022;-66
2022/08/02 12:39:52;;;;;;;1.85;0.90;;;30.60;38.10;;;;;;5006146;28;20036;-66
2022/08/02 12:42:18;;;;;;;1.13;0.82;;;30.50;38.00;;;;;;5007237;28;20064;-66
2022/08/02 12:44:58;;;;;;;0.77;0.77;;;30.50;38.10;;;;;;5007893;28;20037;-66
2022/08/02 12:47:25;;;;;;;3.22;0.93;;;30.70;38.10;;;;;;5005015;28;20037;-66
2022/08/02 12:50:25;;;;;;;1.27;0.73;;;30.90;37.80;;;;;;5005629;28;20421;-66
2022/08/02 12:53:21;;;;;;;1.75;1.00;;;31.20;37.60;;;;;;4998181;28;20145;-66
2022/08/02 12:55:50;;;;;;;2.50;0.88;;;31.20;37.40;;;;;;5004720;28;20579;-66
2022/08/02 12:58:16;;;;;;;2.88;1.30;;;31.20;36.70;;;;;;5005402;28;20516;-66
2022/08/02 13:00:42;;;;;;;1.00;0.90;;;30.90;35.40;;;;;;5005429;28;20033;-66
2022/08/02 13:03:08;;;;;;;1.05;0.90;;;30.90;36.30;;;;;;5009770;28;20033;-66